Wetterdaten: Samstag, 24.12.2011
Datum Zeit Temp. A. Feuchte A. Luftdruck Regen Wind Richtung Richtung Sonnenschein UV Solar Windben
24.12.2011 00:00 7,5 C 88 % 1009,6 hPa 0,0 mm 1,6 km/h (1 Bft) S-SW 202 0 min 0 UV-I 0 W/m 4,8 km/h (1 Bft)
24.12.2011 00:10 7,5 C 88 % 1009,4 hPa 0,0 mm 1,6 km/h (1 Bft) S 180 0 min 0 UV-I 0 W/m 6,4 km/h (2 Bft)
24.12.2011 00:20 7,5 C 88 % 1009,2 hPa 0,0 mm 3,2 km/h (1 Bft) S 180 0 min 0 UV-I 0 W/m 9,7 km/h (2 Bft)
24.12.2011 00:30 7,4 C 87 % 1009,0 hPa 0,0 mm 1,6 km/h (1 Bft) SW 225 0 min 0 UV-I 0 W/m 11,3 km/h (2 Bft)
24.12.2011 00:40 7,4 C 87 % 1008,9 hPa 0,0 mm 1,6 km/h (1 Bft) SW 225 0 min 0 UV-I 0 W/m 9,7 km/h (2 Bft)
24.12.2011 00:50 7,4 C 87 % 1008,8 hPa 0,0 mm 1,6 km/h (1 Bft) SW 225 0 min 0 UV-I 0 W/m 9,7 km/h (2 Bft)
24.12.2011 01:00 7,4 C 86 % 1008,7 hPa 0,0 mm 1,6 km/h (1 Bft) S-SW 202 0 min 0 UV-I 0 W/m 8,0 km/h (2 Bft)
24.12.2011 01:10 7,4 C 86 % 1008,5 hPa 0,0 mm 1,6 km/h (1 Bft) SW 225 0 min 0 UV-I 0 W/m 9,7 km/h (2 Bft)
24.12.2011 01:20 7,4 C 86 % 1008,4 hPa 0,0 mm 3,2 km/h (1 Bft) S-SW 202 0 min 0 UV-I 0 W/m 11,3 km/h (2 Bft)
24.12.2011 01:30 7,4 C 86 % 1008,1 hPa 0,0 mm 1,6 km/h (1 Bft) W-SW 247 0 min 0 UV-I 0 W/m 9,7 km/h (2 Bft)
24.12.2011 01:40 7,4 C 86 % 1007,8 hPa 0,0 mm 1,6 km/h (1 Bft) S-SW 202 0 min 0 UV-I 0 W/m 9,7 km/h (2 Bft)
24.12.2011 01:50 7,4 C 86 % 1007,6 hPa 0,0 mm 3,2 km/h (1 Bft) S-SW 202 0 min 0 UV-I 0 W/m 14,5 km/h (3 Bft)
24.12.2011 02:00 7,4 C 86 % 1007,5 hPa 0,0 mm 3,2 km/h (1 Bft) S-SW 202 0 min 0 UV-I 0 W/m 11,3 km/h (2 Bft)
24.12.2011 02:10 7,4 C 86 % 1007,4 hPa 0,0 mm 3,2 km/h (1 Bft) S-SW 202 0 min 0 UV-I 0 W/m 17,7 km/h (3 Bft)
24.12.2011 02:20 7,4 C 87 % 1007,4 hPa 0,0 mm 3,2 km/h (1 Bft) SW 225 0 min 0 UV-I 0 W/m 14,5 km/h (3 Bft)
24.12.2011 02:30 7,4 C 86 % 1007,3 hPa 0,0 mm 4,8 km/h (1 Bft) SW 225 0 min 0 UV-I 0 W/m 16,1 km/h (3 Bft)
24.12.2011 02:40 7,5 C 86 % 1007,4 hPa 0,0 mm 4,8 km/h (1 Bft) SW 225 0 min 0 UV-I 0 W/m 22,5 km/h (4 Bft)
24.12.2011 02:50 7,5 C 87 % 1007,2 hPa 0,0 mm 3,2 km/h (1 Bft) SW 225 0 min 0 UV-I 0 W/m 12,9 km/h (3 Bft)
24.12.2011 03:00 7,6 C 87 % 1007,1 hPa 0,3 mm 3,2 km/h (1 Bft) SW 225 0 min 0 UV-I 0 W/m 11,3 km/h (2 Bft)
24.12.2011 03:10 7,6 C 87 % 1007,0 hPa 0,3 mm 4,8 km/h (1 Bft) S-SW 202 0 min 0 UV-I 0 W/m 11,3 km/h (2 Bft)
24.12.2011 03:20 7,5 C 87 % 1006,8 hPa 0,0 mm 3,2 km/h (1 Bft) S-SW 202 0 min 0 UV-I 0 W/m 16,1 km/h (3 Bft)
24.12.2011 03:30 7,4 C 87 % 1006,7 hPa 0,3 mm 3,2 km/h (1 Bft) SW 225 0 min 0 UV-I 0 W/m 11,3 km/h (2 Bft)
24.12.2011 03:40 7,4 C 87 % 1006,6 hPa 0,3 mm 1,6 km/h (1 Bft) SW 225 0 min 0 UV-I 0 W/m 9,7 km/h (2 Bft)
24.12.2011 03:50 7,3 C 87 % 1006,5 hPa 0,0 mm 3,2 km/h (1 Bft) SW 225 0 min 0 UV-I 0 W/m 11,3 km/h (2 Bft)
24.12.2011 04:00 7,3 C 87 % 1006,5 hPa 0,0 mm 3,2 km/h (1 Bft) SW 225 0 min 0 UV-I 0 W/m 9,7 km/h (2 Bft)
24.12.2011 04:10 7,2 C 88 % 1006,3 hPa 0,3 mm 4,8 km/h (1 Bft) SW 225 0 min 0 UV-I 0 W/m 14,5 km/h (3 Bft)
24.12.2011 04:20 7,2 C 88 % 1006,2 hPa 0,0 mm 3,2 km/h (1 Bft) S-SW 202 0 min 0 UV-I 0 W/m 9,7 km/h (2 Bft)
24.12.2011 04:30 7,2 C 88 % 1006,2 hPa 0,0 mm 6,4 km/h (2 Bft) SW 225 0 min 0 UV-I 0 W/m 16,1 km/h (3 Bft)
24.12.2011 04:40 7,2 C 89 % 1006,2 hPa 0,0 mm 8,0 km/h (2 Bft) W-SW 247 0 min 0 UV-I 0 W/m 24,1 km/h (4 Bft)
24.12.2011 04:50 7,2 C 89 % 1006,5 hPa 0,0 mm 12,9 km/h (3 Bft) SW 225 0 min 0 UV-I 0 W/m 29,0 km/h (5 Bft)
24.12.2011 05:00 7,2 C 92 % 1006,6 hPa 0,0 mm 14,5 km/h (3 Bft) SW 225 0 min 0 UV-I 0 W/m 32,2 km/h (5 Bft)
24.12.2011 05:10 6,8 C 88 % 1006,6 hPa 0,0 mm 12,9 km/h (3 Bft) W-SW 247 0 min 0 UV-I 0 W/m 32,2 km/h (5 Bft)
24.12.2011 05:20 6,6 C 88 % 1006,6 hPa 0,0 mm 16,1 km/h (3 Bft) W-SW 247 0 min 0 UV-I 0 W/m 43,5 km/h (6 Bft)
24.12.2011 05:30 6,2 C 88 % 1007,1 hPa 0,0 mm 16,1 km/h (3 Bft) W-SW 247 0 min 0 UV-I 0 W/m 33,8 km/h (5 Bft)
24.12.2011 05:40 5,8 C 88 % 1007,2 hPa 0,0 mm 12,9 km/h (3 Bft) W-SW 247 0 min 0 UV-I 0 W/m 32,2 km/h (5 Bft)
24.12.2011 05:50 5,6 C 88 % 1007,0 hPa 0,0 mm 14,5 km/h (3 Bft) W-SW 247 0 min 0 UV-I 0 W/m 32,2 km/h (5 Bft)
24.12.2011 06:00 5,3 C 88 % 1007,1 hPa 0,3 mm 12,9 km/h (3 Bft) W-SW 247 0 min 0 UV-I 0 W/m 32,2 km/h (5 Bft)
24.12.2011 06:10 5,1 C 94 % 1007,1 hPa 0,3 mm 16,1 km/h (3 Bft) W-SW 247 0 min 0 UV-I 0 W/m 38,6 km/h (5 Bft)
24.12.2011 06:20 4,9 C 89 % 1007,5 hPa 0,3 mm 14,5 km/h (3 Bft) W 270 0 min 0 UV-I 0 W/m 38,6 km/h (5 Bft)
24.12.2011 06:30 4,8 C 89 % 1008,1 hPa 0,5 mm 17,7 km/h (3 Bft) W 270 0 min 0 UV-I 0 W/m 40,2 km/h (6 Bft)
24.12.2011 06:40 4,7 C 90 % 1008,8 hPa 0,5 mm 16,1 km/h (3 Bft) W-NW 292 0 min 0 UV-I 0 W/m 38,6 km/h (5 Bft)
24.12.2011 06:50 4,6 C 90 % 1009,7 hPa 0,3 mm 12,9 km/h (3 Bft) W-NW 292 0 min 0 UV-I 0 W/m 30,6 km/h (5 Bft)
24.12.2011 07:00 4,4 C 90 % 1010,7 hPa 0,5 mm 16,1 km/h (3 Bft) W-NW 292 0 min 0 UV-I 0 W/m 38,6 km/h (5 Bft)
24.12.2011 07:10 4,2 C 90 % 1011,4 hPa 0,3 mm 16,1 km/h (3 Bft) W-NW 292 0 min 0 UV-I 0 W/m 41,8 km/h (6 Bft)
24.12.2011 07:20 3,9 C 90 % 1012,0 hPa 0,5 mm 11,3 km/h (2 Bft) W-NW 292 0 min 0 UV-I 0 W/m 30,6 km/h (5 Bft)
24.12.2011 07:30 3,8 C 90 % 1012,5 hPa 0,5 mm 9,7 km/h (2 Bft) W-NW 292 0 min 0 UV-I 0 W/m 37,0 km/h (5 Bft)
24.12.2011 07:40 3,8 C 90 % 1012,9 hPa 0,3 mm 8,0 km/h (2 Bft) W-NW 292 0 min 0 UV-I 0 W/m 24,1 km/h (4 Bft)
24.12.2011 07:50 3,8 C 90 % 1013,5 hPa 0,3 mm 9,7 km/h (2 Bft) W-NW 292 0 min 0 UV-I 0 W/m 22,5 km/h (4 Bft)
24.12.2011 08:00 3,8 C 90 % 1014,0 hPa 0,3 mm 9,3 km/h (2 Bft) W 275 0 min 0 UV-I 0 W/m 22,5 km/h (4 Bft)
24.12.2011 08:10 3,8 C 91 % 1014,3 hPa 0,3 mm 9,7 km/h (2 Bft) W-NW 292 0 min 0 UV-I 0 W/m 32,2 km/h (5 Bft)
24.12.2011 08:20 3,8 C 91 % 1014,7 hPa 0,0 mm 9,7 km/h (2 Bft) W-NW 292 0 min 0 UV-I 0 W/m 27,4 km/h (4 Bft)
24.12.2011 08:30 3,9 C 91 % 1015,2 hPa 0,3 mm 9,7 km/h (2 Bft) W-NW 292 0 min 0 UV-I 0 W/m 25,7 km/h (4 Bft)
24.12.2011 08:40 3,9 C 91 % 1015,8 hPa 0,0 mm 9,7 km/h (2 Bft) W-NW 292 0 min 0 UV-I 0 W/m 27,4 km/h (4 Bft)
24.12.2011 08:50 4,0 C 91 % 1016,4 hPa 0,0 mm 8,0 km/h (2 Bft) W-NW 292 0 min 0 UV-I 5 W/m 24,1 km/h (4 Bft)
24.12.2011 09:00 4,1 C 91 % 1016,5 hPa 0,3 mm 9,7 km/h (2 Bft) W-NW 292 0 min 0 UV-I 5 W/m 27,4 km/h (4 Bft)
24.12.2011 09:10 4,1 C 91 % 1016,9 hPa 0,0 mm 8,0 km/h (2 Bft) W-NW 292 0 min 0 UV-I 7 W/m 22,5 km/h (4 Bft)
24.12.2011 09:20 4,1 C 91 % 1017,2 hPa 0,0 mm 8,0 km/h (2 Bft) W-NW 292 0 min 0 UV-I 7 W/m 22,5 km/h (4 Bft)
24.12.2011 09:30 4,0 C 91 % 1017,6 hPa 0,3 mm 8,0 km/h (2 Bft) W-NW 292 0 min 0 UV-I 14 W/m 24,1 km/h (4 Bft)
24.12.2011 09:40 3,9 C 91 % 1018,0 hPa 0,0 mm 6,4 km/h (2 Bft) W 270 0 min 0 UV-I 21 W/m 19,3 km/h (3 Bft)
24.12.2011 09:50 3,9 C 91 % 1018,2 hPa 0,0 mm 6,4 km/h (2 Bft) W 270 0 min 0 UV-I 21 W/m 16,1 km/h (3 Bft)
24.12.2011 10:00 3,9 C 91 % 1018,5 hPa 0,0 mm 8,0 km/h (2 Bft) W 270 0 min 0 UV-I 25 W/m 19,3 km/h (3 Bft)
24.12.2011 10:10 4,0 C 91 % 1018,8 hPa 0,0 mm 6,4 km/h (2 Bft) W-NW 292 0 min 0 UV-I 32 W/m 16,1 km/h (3 Bft)
24.12.2011 10:20 4,2 C 91 % 1019,1 hPa 0,0 mm 4,8 km/h (1 Bft) W-NW 292 0 min 0 UV-I 32 W/m 17,7 km/h (3 Bft)
24.12.2011 10:30 4,3 C 92 % 1019,4 hPa 0,0 mm 4,8 km/h (1 Bft) W-NW 292 0 min 0 UV-I 21 W/m 16,1 km/h (3 Bft)
24.12.2011 10:40 4,4 C 92 % 1019,6 hPa 0,0 mm 8,0 km/h (2 Bft) W 270 0 min 0 UV-I 28 W/m 20,9 km/h (4 Bft)
24.12.2011 10:50 4,6 C 92 % 1019,7 hPa 0,0 mm 6,4 km/h (2 Bft) W-NW 292 0 min 0 UV-I 28 W/m 20,9 km/h (4 Bft)
24.12.2011 11:00 4,6 C 91 % 1020,0 hPa 0,3 mm 8,0 km/h (2 Bft) W 270 0 min 0 UV-I 28 W/m 20,9 km/h (4 Bft)
24.12.2011 11:10 4,6 C 91 % 1020,4 hPa 0,0 mm 8,0 km/h (2 Bft) W 270 0 min 0 UV-I 25 W/m 20,9 km/h (4 Bft)
24.12.2011 11:20 4,7 C 92 % 1020,5 hPa 0,0 mm 9,7 km/h (2 Bft) W 270 0 min 0 UV-I 23 W/m 24,1 km/h (4 Bft)
24.12.2011 11:30 4,7 C 92 % 1020,7 hPa 0,0 mm 8,0 km/h (2 Bft) W-NW 292 0 min 0 UV-I 26 W/m 24,1 km/h (4 Bft)
24.12.2011 11:40 4,8 C 92 % 1021,1 hPa 0,0 mm 9,7 km/h (2 Bft) W-NW 292 0 min 0 UV-I 42 W/m 22,5 km/h (4 Bft)
24.12.2011 11:50 4,9 C 92 % 1021,1 hPa 0,3 mm 8,0 km/h (2 Bft) W-NW 292 0 min 0 UV-I 19 W/m 20,9 km/h (4 Bft)
24.12.2011 12:00 4,9 C 91 % 1021,2 hPa 0,0 mm 8,0 km/h (2 Bft) W-NW 292 0 min 0 UV-I 37 W/m 24,1 km/h (4 Bft)
24.12.2011 12:10 5,0 C 92 % 1021,4 hPa 0,0 mm 8,0 km/h (2 Bft) W-NW 292 0 min 0 UV-I 42 W/m 22,5 km/h (4 Bft)
24.12.2011 12:20 5,1 C 91 % 1021,7 hPa 0,0 mm 11,3 km/h (2 Bft) W-NW 292 0 min 0 UV-I 76 W/m 32,2 km/h (5 Bft)
24.12.2011 12:30 5,1 C 91 % 1021,8 hPa 0,0 mm 8,0 km/h (2 Bft) NW 315 0 min 0 UV-I 63 W/m 22,5 km/h (4 Bft)
24.12.2011 12:40 5,2 C 91 % 1021,8 hPa 0,0 mm 6,4 km/h (2 Bft) W-NW 292 0 min 0 UV-I 63 W/m 22,5 km/h (4 Bft)
24.12.2011 12:50 5,2 C 91 % 1022,1 hPa 0,3 mm 6,4 km/h (2 Bft) W 270 0 min 0 UV-I 118 W/m 20,9 km/h (4 Bft)
24.12.2011 13:00 5,3 C 91 % 1022,3 hPa 0,3 mm 6,4 km/h (2 Bft) NW 315 0 min 0 UV-I 30 W/m 20,9 km/h (4 Bft)
24.12.2011 13:10 5,3 C 91 % 1022,4 hPa 0,5 mm 3,2 km/h (1 Bft) NW 315 0 min 0 UV-I 21 W/m 19,3 km/h (3 Bft)
24.12.2011 13:20 5,3 C 91 % 1022,5 hPa 0,5 mm 3,2 km/h (1 Bft) N 360 0 min 0 UV-I 18 W/m 20,9 km/h (4 Bft)
24.12.2011 13:30 5,1 C 90 % 1022,6 hPa 0,0 mm 3,2 km/h (1 Bft) NW 315 0 min 0 UV-I 84 W/m 14,5 km/h (3 Bft)
24.12.2011 13:40 4,8 C 90 % 1022,7 hPa 0,0 mm 1,6 km/h (1 Bft) N 360 0 min 0 UV-I 18 W/m 11,3 km/h (2 Bft)
24.12.2011 13:50 4,7 C 90 % 1022,9 hPa 0,3 mm 1,6 km/h (1 Bft) N-NW 337 0 min 0 UV-I 100 W/m 14,5 km/h (3 Bft)
24.12.2011 14:00 4,6 C 90 % 1023,0 hPa 0,0 mm 4,8 km/h (1 Bft) NW 315 0 min 0 UV-I 40 W/m 19,3 km/h (3 Bft)
24.12.2011 14:10 4,7 C 91 % 1023,1 hPa 0,0 mm 4,8 km/h (1 Bft) NW 315 0 min 0 UV-I 74 W/m 14,5 km/h (3 Bft)
24.12.2011 14:20 4,9 C 91 % 1023,3 hPa 0,0 mm 6,4 km/h (2 Bft) W-NW 292 0 min 0 UV-I 72 W/m 16,1 km/h (3 Bft)
24.12.2011 14:30 5,2 C 91 % 1023,4 hPa 0,0 mm 6,4 km/h (2 Bft) W-NW 292 0 min 0 UV-I 60 W/m 19,3 km/h (3 Bft)
24.12.2011 14:40 5,3 C 90 % 1023,5 hPa 0,0 mm 8,0 km/h (2 Bft) W-NW 292 0 min 0 UV-I 69 W/m 24,1 km/h (4 Bft)
24.12.2011 14:50 5,4 C 90 % 1023,7 hPa 0,0 mm 8,0 km/h (2 Bft) W-NW 292 0 min 0 UV-I 70 W/m 19,3 km/h (3 Bft)
24.12.2011 15:00 5,5 C 90 % 1023,7 hPa 0,0 mm 4,8 km/h (1 Bft) W 270 0 min 0 UV-I 42 W/m 19,3 km/h (3 Bft)
24.12.2011 15:10 5,6 C 90 % 1023,9 hPa 0,0 mm 4,8 km/h (1 Bft) W 270 0 min 0 UV-I 46 W/m 22,5 km/h (4 Bft)
24.12.2011 15:20 5,7 C 89 % 1024,0 hPa 0,0 mm 6,4 km/h (2 Bft) W-NW 292 0 min 0 UV-I 32 W/m 19,3 km/h (3 Bft)
24.12.2011 15:30 5,7 C 89 % 1024,2 hPa 0,0 mm 4,8 km/h (1 Bft) W 270 0 min 0 UV-I 12 W/m 20,9 km/h (4 Bft)
24.12.2011 15:40 5,7 C 88 % 1024,4 hPa 0,0 mm 6,4 km/h (2 Bft) W 270 0 min 0 UV-I 21 W/m 20,9 km/h (4 Bft)
24.12.2011 15:50 5,7 C 87 % 1024,7 hPa 0,0 mm 6,4 km/h (2 Bft) W 270 10 min 0 UV-I 32 W/m 17,7 km/h (3 Bft)
24.12.2011 16:00 5,7 C 86 % 1024,9 hPa 0,0 mm 3,2 km/h (1 Bft) N 360 10 min 0 UV-I 16 W/m 16,1 km/h (3 Bft)
24.12.2011 16:10 5,5 C 86 % 1025,1 hPa 0,0 mm 1,6 km/h (1 Bft) N-NW 337 0 min 0 UV-I 12 W/m 8,0 km/h (2 Bft)
24.12.2011 16:20 5,3 C 85 % 1025,2 hPa 0,0 mm 3,2 km/h (1 Bft) N-NW 337 0 min 0 UV-I 0 W/m 11,3 km/h (2 Bft)
24.12.2011 16:30 5,2 C 86 % 1025,4 hPa 0,0 mm 4,8 km/h (1 Bft) W-NW 292 0 min 0 UV-I 0 W/m 19,3 km/h (3 Bft)
24.12.2011 16:40 5,1 C 86 % 1025,5 hPa 0,0 mm 6,4 km/h (2 Bft) W-NW 292 0 min 0 UV-I 0 W/m 16,1 km/h (3 Bft)
24.12.2011 16:50 5,1 C 85 % 1025,6 hPa 0,0 mm 3,2 km/h (1 Bft) W 270 0 min 0 UV-I 0 W/m 11,3 km/h (2 Bft)
24.12.2011 17:00 5,1 C 85 % 1025,8 hPa 0,0 mm 1,6 km/h (1 Bft) W 270 0 min 0 UV-I 0 W/m 9,7 km/h (2 Bft)
24.12.2011 17:10 5,0 C 85 % 1026,0 hPa 0,0 mm 1,6 km/h (1 Bft) W 270 0 min 0 UV-I 0 W/m 9,7 km/h (2 Bft)
24.12.2011 17:20 4,9 C 85 % 1026,1 hPa 0,0 mm 3,2 km/h (1 Bft) W-SW 247 0 min 0 UV-I 0 W/m 9,7 km/h (2 Bft)
24.12.2011 17:30 4,9 C 85 % 1026,3 hPa 0,0 mm 4,8 km/h (1 Bft) W-SW 247 0 min 0 UV-I 0 W/m 14,5 km/h (3 Bft)
24.12.2011 17:40 4,8 C 86 % 1026,3 hPa 0,0 mm 4,8 km/h (1 Bft) SW 225 0 min 0 UV-I 0 W/m 11,3 km/h (2 Bft)
24.12.2011 17:50 4,7 C 86 % 1026,4 hPa 0,0 mm 4,8 km/h (1 Bft) W-SW 247 0 min 0 UV-I 0 W/m 11,3 km/h (2 Bft)
24.12.2011 18:00 4,7 C 86 % 1026,5 hPa 0,0 mm 4,8 km/h (1 Bft) W-SW 247 0 min 0 UV-I 0 W/m 14,5 km/h (3 Bft)
24.12.2011 18:10 4,6 C 86 % 1026,8 hPa 0,0 mm 4,8 km/h (1 Bft) W-SW 247 0 min 0 UV-I 0 W/m 16,1 km/h (3 Bft)
24.12.2011 18:20 4,5 C 86 % 1026,9 hPa 0,0 mm 4,8 km/h (1 Bft) W-SW 247 0 min 0 UV-I 0 W/m 16,1 km/h (3 Bft)
24.12.2011 18:30 4,4 C 86 % 1026,9 hPa 0,0 mm 1,6 km/h (1 Bft) W-SW 247 0 min 0 UV-I 0 W/m 9,7 km/h (2 Bft)
24.12.2011 18:40 4,4 C 86 % 1027,1 hPa 0,0 mm 1,6 km/h (1 Bft) W 270 0 min 0 UV-I 0 W/m 8,0 km/h (2 Bft)
24.12.2011 18:50 4,3 C 86 % 1027,2 hPa 0,0 mm 1,6 km/h (1 Bft) W-SW 247 0 min 0 UV-I 0 W/m 8,0 km/h (2 Bft)
24.12.2011 19:00 4,3 C 86 % 1027,2 hPa 0,0 mm 3,2 km/h (1 Bft) W-SW 247 0 min 0 UV-I 0 W/m 8,0 km/h (2 Bft)
24.12.2011 19:10 4,2 C 86 % 1027,3 hPa 0,0 mm 3,2 km/h (1 Bft) W-SW 247 0 min 0 UV-I 0 W/m 9,7 km/h (2 Bft)
24.12.2011 19:20 4,3 C 87 % 1027,4 hPa 0,0 mm 3,2 km/h (1 Bft) W-SW 247 0 min 0 UV-I 0 W/m 11,3 km/h (2 Bft)
24.12.2011 19:30 4,3 C 87 % 1027,6 hPa 0,0 mm 4,8 km/h (1 Bft) W 270 0 min 0 UV-I 0 W/m 17,7 km/h (3 Bft)
24.12.2011 19:40 4,3 C 87 % 1027,6 hPa 0,0 mm 1,6 km/h (1 Bft) W-SW 247 0 min 0 UV-I 0 W/m 8,0 km/h (2 Bft)
24.12.2011 19:50 4,3 C 87 % 1027,6 hPa 0,0 mm 3,2 km/h (1 Bft) W-SW 247 0 min 0 UV-I 0 W/m 11,3 km/h (2 Bft)
24.12.2011 20:00 4,3 C 87 % 1027,6 hPa 0,0 mm 3,2 km/h (1 Bft) W-SW 247 0 min 0 UV-I 0 W/m 11,3 km/h (2 Bft)
24.12.2011 20:10 4,2 C 87 % 1027,8 hPa 0,0 mm 4,8 km/h (1 Bft) W 270 0 min 0 UV-I 0 W/m 11,3 km/h (2 Bft)
24.12.2011 20:20 4,2 C 87 % 1027,9 hPa 0,0 mm 4,8 km/h (1 Bft) W-SW 247 0 min 0 UV-I 0 W/m 14,5 km/h (3 Bft)
24.12.2011 20:30 4,1 C 87 % 1027,9 hPa 0,0 mm 6,4 km/h (2 Bft) W 270 0 min 0 UV-I 0 W/m 19,3 km/h (3 Bft)
24.12.2011 20:40 4,1 C 87 % 1027,8 hPa 0,0 mm 4,8 km/h (1 Bft) W-SW 247 0 min 0 UV-I 0 W/m 11,3 km/h (2 Bft)
24.12.2011 20:50 4,1 C 87 % 1027,8 hPa 0,0 mm 3,2 km/h (1 Bft) W-SW 247 0 min 0 UV-I 0 W/m 11,3 km/h (2 Bft)
24.12.2011 21:00 4,1 C 87 % 1027,9 hPa 0,0 mm 3,2 km/h (1 Bft) SW 225 0 min 0 UV-I 0 W/m 14,5 km/h (3 Bft)
24.12.2011 21:10 4,1 C 87 % 1027,8 hPa 0,0 mm 3,2 km/h (1 Bft) W-SW 247 0 min 0 UV-I 0 W/m 9,7 km/h (2 Bft)
24.12.2011 21:20 4,1 C 87 % 1027,8 hPa 0,0 mm 3,2 km/h (1 Bft) S-SW 202 0 min 0 UV-I 0 W/m 11,3 km/h (2 Bft)
24.12.2011 21:30 4,1 C 87 % 1027,9 hPa 0,0 mm 3,2 km/h (1 Bft) SW 225 0 min 0 UV-I 0 W/m 11,3 km/h (2 Bft)
24.12.2011 21:40 4,1 C 87 % 1028,0 hPa 0,0 mm 3,2 km/h (1 Bft) W-SW 247 0 min 0 UV-I 0 W/m 14,5 km/h (3 Bft)
24.12.2011 21:50 4,2 C 87 % 1027,9 hPa 0,0 mm 3,2 km/h (1 Bft) SW 225 0 min 0 UV-I 0 W/m 11,3 km/h (2 Bft)
24.12.2011 22:00 4,3 C 88 % 1028,0 hPa 0,0 mm 6,4 km/h (2 Bft) W 270 0 min 0 UV-I 0 W/m 22,5 km/h (4 Bft)
24.12.2011 22:10 4,4 C 88 % 1028,0 hPa 0,0 mm 8,0 km/h (2 Bft) W-SW 247 0 min 0 UV-I 0 W/m 19,3 km/h (3 Bft)
24.12.2011 22:20 4,5 C 87 % 1028,1 hPa 0,0 mm 6,4 km/h (2 Bft) W-SW 247 0 min 0 UV-I 0 W/m 16,1 km/h (3 Bft)
24.12.2011 22:30 4,6 C 87 % 1027,9 hPa 0,0 mm 4,8 km/h (1 Bft) W 270 0 min 0 UV-I 0 W/m 19,3 km/h (3 Bft)
24.12.2011 22:40 4,6 C 87 % 1027,8 hPa 0,0 mm 4,8 km/h (1 Bft) W-SW 247 0 min 0 UV-I 0 W/m 14,5 km/h (3 Bft)
24.12.2011 22:50 4,6 C 87 % 1027,8 hPa 0,0 mm 4,8 km/h (1 Bft) W-SW 247 0 min 0 UV-I 0 W/m 12,9 km/h (3 Bft)
24.12.2011 23:00 4,7 C 87 % 1027,9 hPa 0,0 mm 6,4 km/h (2 Bft) W-SW 247 0 min 0 UV-I 0 W/m 19,3 km/h (3 Bft)
24.12.2011 23:10 4,7 C 87 % 1027,8 hPa 0,0 mm 4,8 km/h (1 Bft) W-SW 247 0 min 0 UV-I 0 W/m 14,5 km/h (3 Bft)
24.12.2011 23:20 4,7 C 87 % 1027,8 hPa 0,0 mm 4,8 km/h (1 Bft) SW 225 0 min 0 UV-I 0 W/m 12,9 km/h (3 Bft)
24.12.2011 23:30 4,8 C 87 % 1027,8 hPa 0,0 mm 6,4 km/h (2 Bft) W-SW 247 0 min 0 UV-I 0 W/m 19,3 km/h (3 Bft)
24.12.2011 23:40 4,8 C 87 % 1027,8 hPa 0,0 mm 6,4 km/h (2 Bft) W-SW 247 0 min 0 UV-I 0 W/m 17,7 km/h (3 Bft)
24.12.2011 23:50 4,9 C 86 % 1027,8 hPa 0,3 mm 4,8 km/h (1 Bft) W-SW 247 0 min 0 UV-I 0 W/m 17,7 km/h (3 Bft)
_ Min-Zeit 07:20 16:20 04:20 - 00:00 - - - - - 00:00
Minimum _ 3,8 C 85 % 1006,2 hPa - 1,6 km/h (1 Bft) - - - - - 4,8 km/h (1 Bft)
_ Max-Zeit 00:00 06:10 22:20 06:30 06:30 - - 15:50 00:00 12:50 05:20
Maximum _ 7,6 C 94 % 1028,1 hPa 0,5 mm 17,7 km/h
W (3 Bft)
- - 10 min 0 UV-I 118 W/m 43,5 km/h
W-SW (6 Bft)
Durchschnitt _ 5,3 C 88 % 1018,6 hPa #9,4 mm 6,1 km/h (2 Bft) W-SW - #20 min. 0 UV-I 37 W/m 18,5 km/h (3 Bft)